createdAt,value
2018-02-11T00:00:20.195Z,60.40
2018-02-11T00:02:48.437Z,60.40
2018-02-11T00:05:16.714Z,60.40
2018-02-11T00:07:45.293Z,60.60
2018-02-11T00:10:13.529Z,60.60
2018-02-11T00:12:41.823Z,60.40
2018-02-11T00:15:10.074Z,60.50
2018-02-11T00:17:38.364Z,60.50
2018-02-11T00:20:07.012Z,60.60
2018-02-11T00:22:35.235Z,60.70
2018-02-11T00:25:03.472Z,60.70
2018-02-11T00:27:31.733Z,60.60
2018-02-11T00:30:00.030Z,60.30
2018-02-11T00:32:28.327Z,60.50
2018-02-11T00:34:56.554Z,60.70
2018-02-11T00:37:30.787Z,60.50
2018-02-11T00:39:59.080Z,60.30
2018-02-11T00:42:27.310Z,60.80
2018-02-11T00:44:56.328Z,60.70
2018-02-11T00:47:24.605Z,60.60
2018-02-11T00:49:52.890Z,60.60
2018-02-11T00:52:21.121Z,61.00
2018-02-11T00:54:49.732Z,60.90
2018-02-11T00:57:18.775Z,60.80
2018-02-11T00:59:47.020Z,60.70
2018-02-11T01:02:15.256Z,60.70
2018-02-11T01:04:44.260Z,61.00
2018-02-11T01:07:13.282Z,60.50
2018-02-11T01:09:41.554Z,60.50
2018-02-11T01:12:09.800Z,60.60
2018-02-11T01:14:38.852Z,60.80
2018-02-11T01:17:07.462Z,60.80
2018-02-11T01:19:35.734Z,60.50
2018-02-11T01:22:04.005Z,60.70
2018-02-11T01:24:32.287Z,60.70
2018-02-11T01:27:00.518Z,60.70
2018-02-11T01:29:29.141Z,60.80
2018-02-11T01:31:57.407Z,60.70
2018-02-11T01:34:25.647Z,60.60
2018-02-11T01:36:53.900Z,61.10
2018-02-11T01:39:22.162Z,60.90
2018-02-11T01:41:50.720Z,61.60
2018-02-11T01:44:18.992Z,61.10
2018-02-11T01:46:47.260Z,60.70
2018-02-11T01:49:15.521Z,61.10
2018-02-11T01:51:43.788Z,61.10
2018-02-11T01:54:12.357Z,60.90
2018-02-11T01:56:41.415Z,61.30
2018-02-11T01:59:09.646Z,61.10
2018-02-11T02:01:37.898Z,61.20
2018-02-11T02:04:06.135Z,61.30
2018-02-11T02:06:34.431Z,61.60
2018-02-11T02:09:02.668Z,61.30
2018-02-11T02:11:31.268Z,61.20
2018-02-11T02:13:59.493Z,61.20
2018-02-11T02:16:28.547Z,61.10
2018-02-11T02:18:56.828Z,61.20
2018-02-11T02:21:25.104Z,61.80
2018-02-11T02:23:53.386Z,61.40
2018-02-11T02:26:21.621Z,61.10
2018-02-11T02:28:50.239Z,61.20
2018-02-11T02:31:18.463Z,61.20
2018-02-11T02:33:47.518Z,61.50
2018-02-11T02:36:15.794Z,61.30
2018-02-11T02:38:44.081Z,61.20
2018-02-11T02:41:12.733Z,61.10
2018-02-11T02:43:40.978Z,61.10
2018-02-11T02:46:09.969Z,61.20
2018-02-11T02:48:38.982Z,61.30
2018-02-11T02:51:07.221Z,61.20
2018-02-11T02:53:35.517Z,61.30
2018-02-11T02:56:04.560Z,61.00
2018-02-11T02:58:32.832Z,61.00
2018-02-11T03:01:01.087Z,61.20
2018-02-11T03:03:29.321Z,61.10
2018-02-11T03:05:57.574Z,61.50
2018-02-11T03:08:25.848Z,61.30
2018-02-11T03:10:54.116Z,61.30
2018-02-11T03:13:22.436Z,61.00
2018-02-11T03:15:50.670Z,61.00
2018-02-11T03:18:18.961Z,61.00
2018-02-11T03:20:47.197Z,61.00
2018-02-11T03:23:15.437Z,61.40
2018-02-11T03:25:43.673Z,61.40
2018-02-11T03:28:11.905Z,61.20
2018-02-11T03:30:40.956Z,61.30
2018-02-11T03:33:09.221Z,61.30
2018-02-11T03:35:37.489Z,61.20
2018-02-11T03:38:05.735Z,61.20
2018-02-11T03:40:34.778Z,61.20
2018-02-11T03:43:03.452Z,61.20
2018-02-11T03:45:31.730Z,61.40
2018-02-11T03:47:59.961Z,61.20
2018-02-11T03:50:28.980Z,61.40
2018-02-11T03:52:57.210Z,61.20
2018-02-11T03:55:25.899Z,61.20
2018-02-11T03:57:54.180Z,61.20
2018-02-11T04:00:22.404Z,61.10
2018-02-11T04:02:50.657Z,61.10
2018-02-11T04:05:19.663Z,61.20
2018-02-11T04:07:47.913Z,61.20
2018-02-11T04:10:16.955Z,61.80
2018-02-11T04:12:45.231Z,61.00
2018-02-11T04:15:13.469Z,60.90
2018-02-11T04:17:42.518Z,61.20
2018-02-11T04:20:10.765Z,61.20
2018-02-11T04:22:39.040Z,61.00
2018-02-11T04:25:08.455Z,61.40
2018-02-11T04:27:36.734Z,62.10
2018-02-11T04:30:04.964Z,61.40
2018-02-11T04:32:33.216Z,61.10
2018-02-11T04:35:01.498Z,62.10
2018-02-11T04:37:29.753Z,61.20
2018-02-11T04:39:57.988Z,61.20
2018-02-11T04:42:27.046Z,61.10
2018-02-11T04:44:55.318Z,61.10
2018-02-11T04:47:23.578Z,61.20
2018-02-11T04:49:51.833Z,61.20
2018-02-11T04:52:20.071Z,61.00
2018-02-11T04:54:48.354Z,61.30
2018-02-11T04:57:16.628Z,61.50
2018-02-11T04:59:44.934Z,62.10
2018-02-11T05:02:13.969Z,61.40
2018-02-11T05:04:42.188Z,61.40
2018-02-11T05:07:11.203Z,61.20
2018-02-11T05:09:39.485Z,61.20
2018-02-11T05:12:07.732Z,61.70
2018-02-11T05:14:36.733Z,61.70
2018-02-11T05:17:05.771Z,61.60
2018-02-11T05:19:34.052Z,61.50
2018-02-11T05:22:02.348Z,61.90
2018-02-11T05:24:31.359Z,61.90
2018-02-11T05:26:59.589Z,61.80
2018-02-11T05:29:27.839Z,61.70
2018-02-11T05:31:56.799Z,61.70
2018-02-11T05:34:25.486Z,61.60
2018-02-11T05:36:53.758Z,61.80
2018-02-11T05:39:21.987Z,61.70
2018-02-11T05:41:50.272Z,61.50
2018-02-11T05:44:18.552Z,62.20
2018-02-11T05:46:46.800Z,61.60
2018-02-11T05:49:15.800Z,61.90
2018-02-11T05:51:44.058Z,61.90
2018-02-11T05:54:13.212Z,62.10
2018-02-11T05:56:41.825Z,61.70
2018-02-11T05:59:10.092Z,62.00
2018-02-11T06:01:38.325Z,61.70
2018-02-11T06:04:06.576Z,62.20
2018-02-11T06:06:35.618Z,62.00
2018-02-11T06:09:04.246Z,62.00
2018-02-11T06:11:32.475Z,61.80
2018-02-11T06:14:00.752Z,62.00
2018-02-11T06:16:29.000Z,61.80
2018-02-11T06:18:57.239Z,62.00
2018-02-11T06:21:26.307Z,61.90
2018-02-11T06:23:54.527Z,62.30
2018-02-11T06:26:24.901Z,62.70
2018-02-11T06:28:53.171Z,62.60
2018-02-11T06:31:21.396Z,62.50
2018-02-11T06:33:49.646Z,63.10
2018-02-11T06:36:17.875Z,62.70
2018-02-11T06:38:46.133Z,62.30
2018-02-11T06:41:15.137Z,62.60
2018-02-11T06:43:44.481Z,62.40
2018-02-11T06:46:12.762Z,62.40
2018-02-11T06:48:40.988Z,62.90
2018-02-11T06:51:10.013Z,62.70
2018-02-11T06:53:38.256Z,62.60
2018-02-11T06:56:07.262Z,62.50
2018-02-11T06:58:35.509Z,62.50
2018-02-11T07:01:03.800Z,62.90
2018-02-11T07:03:32.074Z,62.60
2018-02-11T07:06:00.709Z,62.90
2018-02-11T07:08:28.935Z,63.30
2018-02-11T07:10:58.019Z,62.70
2018-02-11T07:13:26.265Z,62.60
2018-02-11T07:15:54.506Z,62.90
2018-02-11T07:18:22.757Z,62.70
2018-02-11T07:20:51.007Z,63.60
2018-02-11T07:23:19.739Z,63.40
2018-02-11T07:25:48.781Z,63.10
2018-02-11T07:28:17.055Z,63.00
2018-02-11T07:30:45.341Z,63.10
2018-02-11T07:33:13.626Z,63.00
2018-02-11T07:35:41.930Z,62.70
2018-02-11T07:38:10.177Z,62.70
2018-02-11T07:40:38.410Z,62.70
2018-02-11T07:43:06.689Z,62.60
2018-02-11T07:45:35.242Z,62.90
2018-02-11T07:48:03.460Z,62.70
2018-02-11T07:50:31.702Z,62.70
2018-02-11T07:53:00.721Z,62.80
2018-02-11T07:55:29.001Z,62.80
2018-02-11T07:57:57.251Z,62.90
2018-02-11T08:00:26.251Z,62.60
2018-02-11T08:02:55.694Z,62.60
2018-02-11T08:05:23.937Z,62.50
2018-02-11T08:07:52.948Z,62.20
2018-02-11T08:10:21.245Z,62.20
2018-02-11T08:12:49.516Z,62.20
2018-02-11T08:15:17.756Z,62.00
2018-02-11T08:17:46.807Z,61.80
2018-02-11T08:20:15.095Z,61.80
2018-02-11T08:22:43.328Z,61.70
2018-02-11T08:25:11.979Z,61.30
2018-02-11T08:27:40.200Z,61.70
2018-02-11T08:30:08.476Z,61.50
2018-02-11T08:32:36.799Z,61.50
2018-02-11T08:35:05.021Z,61.00
2018-02-11T08:37:33.285Z,60.90
2018-02-11T08:40:01.561Z,60.80
2018-02-11T08:42:30.569Z,60.50
2018-02-11T08:44:58.851Z,60.50
2018-02-11T08:47:27.686Z,60.30
2018-02-11T08:49:55.929Z,60.20
2018-02-11T08:52:24.214Z,60.20
2018-02-11T08:54:52.464Z,60.30
2018-02-11T08:57:20.730Z,59.70
2018-02-11T08:59:49.029Z,58.80
2018-02-11T09:02:17.269Z,59.50
2018-02-11T09:04:46.323Z,60.10
2018-02-11T09:07:14.643Z,60.10
2018-02-11T09:09:42.945Z,59.20
2018-02-11T09:12:11.691Z,59.40
2018-02-11T09:14:40.000Z,59.80
2018-02-11T09:17:09.060Z,60.30
2018-02-11T09:19:37.380Z,60.40
2018-02-11T09:22:06.472Z,59.90
2018-02-11T09:24:35.507Z,59.60
2018-02-11T09:27:03.739Z,59.60
2018-02-11T09:29:32.013Z,60.20
2018-02-11T09:32:01.013Z,60.00
2018-02-11T09:34:30.425Z,59.60
2018-02-11T09:36:58.666Z,59.60
2018-02-11T09:39:26.913Z,59.60
2018-02-11T09:41:55.205Z,59.70
2018-02-11T09:44:23.433Z,59.30
2018-02-11T09:46:51.723Z,59.00
2018-02-11T09:49:19.968Z,59.60
2018-02-11T09:51:49.355Z,60.30
2018-02-11T09:54:17.636Z,60.40
2018-02-11T09:56:45.905Z,60.90
2018-02-11T09:59:14.158Z,61.10
2018-02-11T10:01:42.440Z,61.30
2018-02-11T10:04:10.699Z,61.40
2018-02-11T10:06:38.980Z,61.10
2018-02-11T10:09:07.570Z,61.40
2018-02-11T10:11:35.796Z,61.70
2018-02-11T10:14:04.087Z,62.10
2018-02-11T10:16:32.336Z,62.30
2018-02-11T10:19:01.390Z,62.90
2018-02-11T10:21:29.682Z,62.90
2018-02-11T10:23:57.928Z,63.40
2018-02-11T10:26:26.190Z,63.50
2018-02-11T10:28:54.492Z,63.80
2018-02-11T10:31:23.132Z,64.20
2018-02-11T10:33:52.181Z,64.60
2018-02-11T10:36:20.414Z,64.60
2018-02-11T10:38:49.418Z,70.50
2018-02-11T10:41:17.695Z,70.30
2018-02-11T10:43:46.357Z,66.10
2018-02-11T10:46:14.635Z,65.90
2018-02-11T10:48:43.735Z,65.90
2018-02-11T10:51:12.758Z,66.60
2018-02-11T10:53:41.048Z,66.40
2018-02-11T10:56:09.359Z,66.40
2018-02-11T10:58:37.903Z,66.20
2018-02-11T11:01:06.504Z,66.40
2018-02-11T11:03:34.780Z,67.80
2018-02-11T11:06:03.030Z,67.00
2018-02-11T11:08:31.339Z,67.40
2018-02-11T11:10:59.810Z,67.90
2018-02-11T11:13:28.104Z,67.40
2018-02-11T11:15:56.381Z,67.30
2018-02-11T11:18:24.628Z,67.80
2018-02-11T11:20:52.943Z,67.70
2018-02-11T11:23:21.625Z,67.80
2018-02-11T11:25:50.648Z,68.00
2018-02-11T11:28:18.897Z,67.90
2018-02-11T11:30:47.212Z,68.70
2018-02-11T11:33:16.299Z,67.60
2018-02-11T11:35:44.618Z,67.60
2018-02-11T11:38:12.876Z,68.50
2018-02-11T11:40:42.314Z,68.70
2018-02-11T11:43:10.607Z,68.70
2018-02-11T11:45:38.896Z,68.80
2018-02-11T11:48:07.200Z,68.20
2018-02-11T11:50:36.250Z,69.30
2018-02-11T11:53:04.552Z,69.20
2018-02-11T11:55:32.848Z,68.20
2018-02-11T11:58:02.253Z,68.80
2018-02-11T12:00:31.266Z,68.70
2018-02-11T12:02:59.565Z,68.60
2018-02-11T12:05:27.837Z,67.90
2018-02-11T12:07:56.145Z,68.20
2018-02-11T12:10:24.441Z,68.00
2018-02-11T12:12:52.743Z,67.40
2018-02-11T12:15:21.757Z,68.30
2018-02-11T12:17:50.062Z,68.30
2018-02-11T12:20:18.640Z,68.70
2018-02-11T12:22:46.918Z,68.10
2018-02-11T12:25:15.152Z,67.90
2018-02-11T12:27:44.180Z,68.50
2018-02-11T12:30:12.487Z,68.50
2018-02-11T12:32:41.558Z,68.40
2018-02-11T12:35:09.840Z,68.40
2018-02-11T12:37:38.565Z,67.80
2018-02-11T12:40:06.835Z,67.70
2018-02-11T12:42:35.118Z,67.20
2018-02-11T12:45:03.376Z,67.90
2018-02-11T12:47:31.667Z,68.70
2018-02-11T12:50:00.312Z,68.20
2018-02-11T12:52:28.603Z,68.10
2018-02-11T12:54:56.844Z,68.60
2018-02-11T12:57:25.172Z,68.30
2018-02-11T12:59:54.124Z,67.70
2018-02-11T13:02:22.411Z,67.60
2018-02-11T13:04:50.678Z,67.70
2018-02-11T13:07:19.253Z,68.10
2018-02-11T13:09:48.246Z,68.20
2018-02-11T13:12:16.482Z,68.20
2018-02-11T13:14:44.795Z,68.70
2018-02-11T13:17:13.816Z,69.20
2018-02-11T13:19:42.108Z,69.10
2018-02-11T13:22:10.337Z,69.30
2018-02-11T13:24:39.826Z,68.70
2018-02-11T13:27:08.070Z,68.60
2018-02-11T13:29:36.317Z,69.60
2018-02-11T13:32:04.560Z,68.40
2018-02-11T13:34:33.623Z,69.00
2018-02-11T13:37:01.923Z,69.00
2018-02-11T13:39:30.203Z,69.10
2018-02-11T13:41:58.517Z,68.80
2018-02-11T13:44:26.790Z,68.80
2018-02-11T13:46:55.463Z,69.00
2018-02-11T13:49:24.537Z,68.40
2018-02-11T13:51:52.763Z,68.40
2018-02-11T13:54:21.064Z,68.70
2018-02-11T13:56:49.300Z,68.30
2018-02-11T13:59:17.594Z,68.30
2018-02-11T14:01:45.835Z,68.90
2018-02-11T14:04:15.204Z,68.60
2018-02-11T14:06:43.509Z,68.50
2018-02-11T14:09:11.746Z,67.90
2018-02-11T14:11:40.031Z,68.00
2018-02-11T14:14:08.281Z,68.10
2018-02-11T14:16:36.589Z,68.60
2018-02-11T14:19:04.876Z,68.40
2018-02-11T14:21:33.491Z,68.80
2018-02-11T14:24:02.503Z,68.80
2018-02-11T14:26:30.796Z,68.70
2018-02-11T14:28:59.068Z,69.50
2018-02-11T14:31:27.321Z,68.60
2018-02-11T14:33:56.379Z,68.80
2018-02-11T14:36:24.638Z,68.70
2018-02-11T14:38:52.977Z,68.70
2018-02-11T14:41:21.993Z,68.80
2018-02-11T14:43:50.641Z,68.70
2018-02-11T14:46:19.848Z,68.00
2018-02-11T14:48:48.887Z,68.30
2018-02-11T14:51:17.182Z,68.20
2018-02-11T14:53:45.439Z,68.20
2018-02-11T14:56:14.524Z,68.10
2018-02-11T14:58:42.776Z,68.10
2018-02-11T15:01:11.847Z,68.40
2018-02-11T15:03:40.124Z,68.30
2018-02-11T15:06:09.333Z,68.40
2018-02-11T15:08:37.627Z,68.10
2018-02-11T15:11:07.003Z,67.90
2018-02-11T15:13:35.262Z,68.00
2018-02-11T15:16:03.590Z,68.60
2018-02-11T15:18:32.622Z,68.40
2018-02-11T15:21:00.928Z,68.40
2018-02-11T15:23:29.206Z,67.90
2018-02-11T15:25:57.534Z,68.40
2018-02-11T15:28:25.852Z,67.90
2018-02-11T15:30:54.156Z,68.00
2018-02-11T15:33:23.203Z,68.20
2018-02-11T15:35:51.506Z,67.80
2018-02-11T15:38:20.192Z,67.90
2018-02-11T15:40:48.460Z,67.80
2018-02-11T15:43:16.751Z,67.50
2018-02-11T15:45:45.073Z,68.00
2018-02-11T15:48:13.342Z,67.90
2018-02-11T15:50:42.413Z,67.60
2018-02-11T15:53:11.581Z,67.60
2018-02-11T15:55:40.259Z,67.40
2018-02-11T15:58:08.504Z,67.40
2018-02-11T16:00:36.775Z,67.40
2018-02-11T16:03:05.091Z,67.40
2018-02-11T16:05:33.347Z,67.50
2018-02-11T16:08:01.640Z,67.20
2018-02-11T16:10:29.895Z,66.80
2018-02-11T16:12:58.553Z,66.90
2018-02-11T16:15:27.577Z,67.30
2018-02-11T16:17:55.867Z,67.00
2018-02-11T16:20:24.177Z,66.80
2018-02-11T16:22:52.434Z,66.70
2018-02-11T16:25:20.750Z,67.30
2018-02-11T16:27:49.079Z,66.90
2018-02-11T16:30:17.358Z,66.90
2018-02-11T16:32:45.673Z,67.00
2018-02-11T16:35:14.389Z,66.80
2018-02-11T16:37:43.509Z,66.60
2018-02-11T16:40:11.799Z,66.60
2018-02-11T16:42:40.133Z,66.80
2018-02-11T16:45:08.394Z,66.90
2018-02-11T16:47:36.711Z,66.70
2018-02-11T16:50:05.008Z,67.50
2018-02-11T16:52:33.289Z,66.80
2018-02-11T16:55:01.575Z,67.10
2018-02-11T16:57:30.175Z,67.80
2018-02-11T16:59:58.448Z,66.80
2018-02-11T17:02:26.734Z,66.70
2018-02-11T17:04:55.061Z,66.80
2018-02-11T17:07:23.323Z,67.00
2018-02-11T17:09:52.445Z,66.50
2018-02-11T17:12:20.684Z,66.50
2018-02-11T17:14:50.209Z,66.30
2018-02-11T17:17:19.240Z,66.50
2018-02-11T17:19:47.477Z,66.50
2018-02-11T17:22:15.737Z,66.50
2018-02-11T17:24:44.754Z,66.30
2018-02-11T17:27:13.029Z,66.20
2018-02-11T17:29:41.325Z,66.40
2018-02-11T17:32:10.067Z,66.20
2018-02-11T17:34:38.312Z,65.80
2018-02-11T17:37:06.618Z,66.00
2018-02-11T17:39:34.910Z,65.80
2018-02-11T17:42:03.957Z,66.00
2018-02-11T17:44:32.523Z,66.00
2018-02-11T17:47:00.776Z,66.30
2018-02-11T17:49:29.062Z,66.10
2018-02-11T17:51:57.920Z,66.40
2018-02-11T17:54:26.223Z,66.00
2018-02-11T17:56:55.288Z,67.00
2018-02-11T17:59:23.522Z,67.00
2018-02-11T18:01:52.086Z,66.60
2018-02-11T18:04:20.329Z,67.00
2018-02-11T18:06:48.577Z,67.10
2018-02-11T18:09:16.840Z,67.30
2018-02-11T18:11:46.008Z,67.20
2018-02-11T18:14:15.083Z,66.90
2018-02-11T18:16:44.139Z,66.70
2018-02-11T18:19:12.851Z,66.70
2018-02-11T18:21:41.092Z,66.90
2018-02-11T18:24:09.345Z,66.80
2018-02-11T18:26:37.602Z,66.90
2018-02-11T18:29:06.601Z,67.00
2018-02-11T18:31:35.628Z,66.80
2018-02-11T18:34:03.899Z,66.80
2018-02-11T18:36:32.635Z,66.60
2018-02-11T18:39:00.964Z,66.30
2018-02-11T18:41:29.224Z,66.60
2018-02-11T18:43:58.256Z,66.90
2018-02-11T18:46:26.538Z,66.90
2018-02-11T18:48:54.914Z,66.80
2018-02-11T18:51:23.793Z,66.60
2018-02-11T18:53:52.420Z,67.00
2018-02-11T18:56:20.713Z,66.70
2018-02-11T18:58:49.009Z,67.00
2018-02-11T19:01:17.269Z,67.10
2018-02-11T19:03:46.323Z,66.80
2018-02-11T19:06:14.578Z,66.80
2018-02-11T19:08:42.872Z,67.10
2018-02-11T19:11:11.596Z,67.00
2018-02-11T19:13:39.877Z,67.10
2018-02-11T19:16:08.125Z,66.90
2018-02-11T19:18:36.388Z,67.30
2018-02-11T19:21:04.694Z,67.30
2018-02-11T19:23:32.982Z,67.30
2018-02-11T19:26:01.293Z,67.40
2018-02-11T19:28:29.908Z,67.50
2018-02-11T19:30:58.182Z,67.30
2018-02-11T19:33:26.423Z,67.40
2018-02-11T19:35:54.682Z,67.40
2018-02-11T19:38:23.762Z,67.40
2018-02-11T19:40:52.093Z,67.40
2018-02-11T19:43:20.395Z,67.30
2018-02-11T19:45:48.977Z,67.80
2018-02-11T19:48:17.224Z,68.20
2018-02-11T19:50:45.538Z,67.90
2018-02-11T19:53:13.839Z,67.60
2018-02-11T19:55:42.091Z,67.80
2018-02-11T19:58:10.380Z,68.90
2018-02-11T20:00:38.673Z,69.20
2018-02-11T20:03:06.971Z,69.30
2018-02-11T20:05:36.053Z,69.70
2018-02-11T20:08:05.156Z,69.60
2018-02-11T20:10:34.235Z,69.60
2018-02-11T20:13:02.938Z,69.60
2018-02-11T20:15:31.252Z,69.00
2018-02-11T20:17:59.563Z,68.80
2018-02-11T20:20:27.852Z,68.70
2018-02-11T20:22:56.111Z,69.30
2018-02-11T20:25:24.692Z,69.40
2018-02-11T20:27:52.965Z,69.50
2018-02-11T20:30:21.222Z,69.50
2018-02-11T20:32:50.101Z,70.30
2018-02-11T20:35:18.363Z,70.30
2018-02-11T20:37:47.397Z,69.00
2018-02-11T20:40:15.669Z,69.00
2018-02-11T20:42:43.955Z,68.80
2018-02-11T20:45:12.218Z,68.70
2018-02-11T20:47:40.547Z,68.50
2018-02-11T20:50:09.663Z,68.40
2018-02-11T20:52:38.805Z,68.10
2018-02-11T20:55:07.145Z,68.10
2018-02-11T20:57:36.198Z,68.40
2018-02-11T21:00:04.479Z,68.40
2018-02-11T21:02:32.781Z,68.80
2018-02-11T21:05:01.849Z,68.20
2018-02-11T21:07:30.147Z,68.10
2018-02-11T21:09:58.430Z,68.90
2018-02-11T21:12:27.493Z,69.10
2018-02-11T21:14:56.013Z,68.20
2018-02-11T21:17:25.053Z,68.70
2018-02-11T21:19:53.331Z,68.70
2018-02-11T21:22:21.640Z,68.20
2018-02-11T21:24:50.160Z,68.40
2018-02-11T21:27:18.439Z,68.00
2018-02-11T21:29:46.698Z,68.00
2018-02-11T21:32:15.729Z,68.00
2018-02-11T21:34:43.969Z,68.00
2018-02-11T21:37:13.433Z,67.80
2018-02-11T21:39:42.308Z,67.80
2018-02-11T21:42:10.619Z,68.20
2018-02-11T21:44:38.892Z,67.80
2018-02-11T21:47:07.144Z,67.50
2018-02-11T21:49:35.414Z,67.70
2018-02-11T21:52:03.699Z,67.80
2018-02-11T21:54:32.307Z,67.70
2018-02-11T21:57:00.547Z,67.90
2018-02-11T21:59:28.815Z,67.90
2018-02-11T22:01:57.117Z,67.80
2018-02-11T22:04:25.342Z,68.30
2018-02-11T22:06:54.404Z,67.80
2018-02-11T22:09:23.444Z,67.80
2018-02-11T22:11:52.827Z,67.80
2018-02-11T22:14:21.101Z,67.70
2018-02-11T22:16:49.370Z,67.70
2018-02-11T22:19:17.665Z,67.60
2018-02-11T22:21:46.754Z,67.80
2018-02-11T22:24:15.039Z,67.70
2018-02-11T22:26:44.088Z,67.70
2018-02-11T22:29:12.708Z,67.60
2018-02-11T22:31:41.010Z,67.50
2018-02-11T22:34:10.005Z,67.50
2018-02-11T22:36:38.304Z,67.50
2018-02-11T22:39:06.580Z,67.50
2018-02-11T22:41:34.862Z,67.40
2018-02-11T22:44:03.158Z,67.70
2018-02-11T22:46:31.779Z,67.60
2018-02-11T22:49:00.067Z,67.40
2018-02-11T22:51:29.074Z,67.60
2018-02-11T22:53:58.085Z,67.50
2018-02-11T22:56:26.336Z,67.50
2018-02-11T23:01:23.665Z,67.70
2018-02-11T23:03:52.213Z,67.80
2018-02-11T23:06:20.506Z,68.10
2018-02-11T23:08:48.749Z,67.70
2018-02-11T23:11:17.793Z,67.70
2018-02-11T23:13:46.080Z,67.50
2018-02-11T23:16:14.366Z,67.70
2018-02-11T23:18:42.638Z,67.60
2018-02-11T23:21:11.205Z,67.50
2018-02-11T23:23:39.449Z,67.90
2018-02-11T23:26:07.698Z,67.70
2018-02-11T23:28:36.750Z,67.40
2018-02-11T23:31:05.023Z,67.30
2018-02-11T23:33:33.269Z,67.30
2018-02-11T23:36:01.513Z,67.50
2018-02-11T23:38:29.759Z,67.30
2018-02-11T23:40:58.000Z,67.40
2018-02-11T23:43:26.655Z,67.10
2018-02-11T23:45:54.919Z,67.00
2018-02-11T23:48:23.199Z,67.10
2018-02-11T23:50:51.434Z,66.90
2018-02-11T23:53:19.723Z,66.80
2018-02-11T23:55:48.010Z,66.80
2018-02-11T23:58:16.246Z,66.70
